sensor_id;sensor_type;location;lat;lon;timestamp;pressure;altitude;pressure_sealevel;temperature;humidity
21781;BME280;52576;53.614;9.894;2023-05-11T00:01:02;101191.06;;;11.41;87.18
21781;BME280;52576;53.614;9.894;2023-05-11T00:03:05;101188.53;;;11.40;87.30
21781;BME280;52576;53.614;9.894;2023-05-11T00:05:09;101199.03;;;11.40;87.26
21781;BME280;52576;53.614;9.894;2023-05-11T00:07:13;101193.78;;;11.40;87.41
21781;BME280;52576;53.614;9.894;2023-05-11T00:09:17;101192.94;;;11.39;87.37
21781;BME280;52576;53.614;9.894;2023-05-11T00:11:20;101202.59;;;11.39;87.50
21781;BME280;52576;53.614;9.894;2023-05-11T00:13:24;101201.75;;;11.38;87.42
21781;BME280;52576;53.614;9.894;2023-05-11T00:15:27;101205.31;;;11.37;87.40
21781;BME280;52576;53.614;9.894;2023-05-11T00:17:31;101204.47;;;11.37;87.43
21781;BME280;52576;53.614;9.894;2023-05-11T00:19:34;101198.38;;;11.36;87.33
21781;BME280;52576;53.614;9.894;2023-05-11T00:21:38;101195.84;;;11.35;87.34
21781;BME280;52576;53.614;9.894;2023-05-11T00:23:42;101200.25;;;11.34;87.35
21781;BME280;52576;53.614;9.894;2023-05-11T00:25:46;101209.91;;;11.34;87.41
21781;BME280;52576;53.614;9.894;2023-05-11T00:27:49;101197.81;;;11.31;87.38
21781;BME280;52576;53.614;9.894;2023-05-11T00:29:52;101205.78;;;11.30;87.41
21781;BME280;52576;53.614;9.894;2023-05-11T00:31:56;101203.16;;;11.30;87.39
21781;BME280;52576;53.614;9.894;2023-05-11T00:33:59;101199.78;;;11.28;87.35
21781;BME280;52576;53.614;9.894;2023-05-11T00:36:03;101198.94;;;11.27;87.56
21781;BME280;52576;53.614;9.894;2023-05-11T00:38:06;101198.94;;;11.27;87.48
21781;BME280;52576;53.614;9.894;2023-05-11T00:40:11;101203.34;;;11.27;87.60
21781;BME280;52576;53.614;9.894;2023-05-11T00:42:15;101201.66;;;11.26;87.51
21781;BME280;52576;53.614;9.894;2023-05-11T00:44:18;101199.97;;;11.25;87.22
21781;BME280;52576;53.614;9.894;2023-05-11T00:46:22;101192.19;;;11.23;87.56
21781;BME280;52576;53.614;9.894;2023-05-11T00:48:25;101193.03;;;11.23;87.50
21781;BME280;52576;53.614;9.894;2023-05-11T00:50:29;101202.69;;;11.23;87.19
21781;BME280;52576;53.614;9.894;2023-05-11T00:52:33;101205.41;;;11.21;87.37
21781;BME280;52576;53.614;9.894;2023-05-11T00:54:36;101194.25;;;11.18;87.34
21781;BME280;52576;53.614;9.894;2023-05-11T00:56:41;101202.25;;;11.16;87.20
21781;BME280;52576;53.614;9.894;2023-05-11T00:58:44;101202.34;;;11.15;87.30
21781;BME280;52576;53.614;9.894;2023-05-11T01:00:48;101203.19;;;11.15;87.33
21781;BME280;52576;53.614;9.894;2023-05-11T01:02:52;101211.25;;;11.12;87.41
21781;BME280;52576;53.614;9.894;2023-05-11T01:04:56;101206.84;;;11.13;87.42
21781;BME280;52576;53.614;9.894;2023-05-11T01:07:03;101208.63;;;11.12;87.34
21781;BME280;52576;53.614;9.894;2023-05-11T01:09:12;101207.69;;;11.13;87.55
21781;BME280;52576;53.614;9.894;2023-05-11T01:11:27;101206.84;;;11.13;87.54
21781;BME280;52576;53.614;9.894;2023-05-11T01:13:38;101208.63;;;11.12;87.37
21781;BME280;52576;53.614;9.894;2023-05-11T01:15:47;101204.41;;;11.10;87.46
21781;BME280;52576;53.614;9.894;2023-05-11T01:18:02;101208.06;;;11.07;87.50
21781;BME280;52576;53.614;9.894;2023-05-11T01:20:14;101211.63;;;11.06;87.54
21781;BME280;52576;53.614;9.894;2023-05-11T01:22:33;101205.53;;;11.06;87.64
21781;BME280;52576;53.614;9.894;2023-05-11T01:24:53;101209.94;;;11.05;87.65
21781;BME280;52576;53.614;9.894;2023-05-11T01:27:19;101198.59;;;11.05;87.86
21781;BME280;52576;53.614;9.894;2023-05-11T01:29:51;101203.00;;;11.04;87.88
21781;BME280;52576;53.614;9.894;2023-05-11T01:32:11;101205.63;;;11.04;87.92
21781;BME280;52576;53.614;9.894;2023-05-11T01:34:20;101212.66;;;11.04;87.90
21781;BME280;52576;53.614;9.894;2023-05-11T01:36:27;101213.50;;;11.04;87.96
21781;BME280;52576;53.614;9.894;2023-05-11T01:38:33;101210.13;;;11.02;88.02
21781;BME280;52576;53.614;9.894;2023-05-11T01:40:38;101213.50;;;11.04;88.02
21781;BME280;52576;53.614;9.894;2023-05-11T01:42:46;101212.56;;;11.05;88.09
21781;BME280;52576;53.614;9.894;2023-05-11T01:44:52;101218.56;;;11.07;88.57
21781;BME280;52576;53.614;9.894;2023-05-11T01:46:59;101218.38;;;11.10;88.05
21781;BME280;52576;53.614;9.894;2023-05-11T01:49:06;101219.97;;;11.13;88.18
21781;BME280;52576;53.614;9.894;2023-05-11T01:51:09;101221.56;;;11.15;88.12
21781;BME280;52576;53.614;9.894;2023-05-11T01:53:13;101223.25;;;11.16;88.21
21781;BME280;52576;53.614;9.894;2023-05-11T01:55:20;101224.91;;;11.17;88.07
21781;BME280;52576;53.614;9.894;2023-05-11T01:57:24;101227.44;;;11.19;88.12
21781;BME280;52576;53.614;9.894;2023-05-11T01:59:30;101225.56;;;11.21;87.88
21781;BME280;52576;53.614;9.894;2023-05-11T02:01:35;101226.41;;;11.21;87.78
21781;BME280;52576;53.614;9.894;2023-05-11T02:03:40;101223.03;;;11.19;87.98
21781;BME280;52576;53.614;9.894;2023-05-11T02:05:47;101236.91;;;11.21;87.75
21781;BME280;52576;53.614;9.894;2023-05-11T02:07:52;101236.91;;;11.21;87.58
21781;BME280;52576;53.614;9.894;2023-05-11T02:09:57;101236.91;;;11.21;87.74
21781;BME280;52576;53.614;9.894;2023-05-11T02:12:01;101235.19;;;11.20;87.66
21781;BME280;52576;53.614;9.894;2023-05-11T02:14:08;101234.44;;;11.18;87.56
21781;BME280;52576;53.614;9.894;2023-05-11T02:16:14;101239.59;;;11.20;87.67
21781;BME280;52576;53.614;9.894;2023-05-11T02:18:19;101244.75;;;11.21;87.80
21781;BME280;52576;53.614;9.894;2023-05-11T02:20:30;101246.53;;;11.21;87.56
21781;BME280;52576;53.614;9.894;2023-05-11T02:22:37;101241.28;;;11.21;87.59
21781;BME280;52576;53.614;9.894;2023-05-11T02:27:07;101243.25;;;11.17;87.31
21781;BME280;52576;53.614;9.894;2023-05-11T02:29:10;101253.03;;;11.15;87.26
21781;BME280;52576;53.614;9.894;2023-05-11T02:31:17;101247.97;;;11.12;87.21
21781;BME280;52576;53.614;9.894;2023-05-11T02:33:25;101245.44;;;11.11;87.09
21781;BME280;52576;53.614;9.894;2023-05-11T02:35:32;101251.72;;;11.08;87.02
21781;BME280;52576;53.614;9.894;2023-05-11T02:37:42;101254.53;;;11.05;86.92
21781;BME280;52576;53.614;9.894;2023-05-11T02:39:54;101248.53;;;11.03;86.84
21781;BME280;52576;53.614;9.894;2023-05-11T02:42:00;101252.09;;;11.02;87.05
21781;BME280;52576;53.614;9.894;2023-05-11T02:44:13;101246.00;;;11.02;87.13
21781;BME280;52576;53.614;9.894;2023-05-11T02:46:20;101250.41;;;11.01;87.02
21781;BME280;52576;53.614;9.894;2023-05-11T02:48:28;101262.75;;;10.99;87.03
21781;BME280;52576;53.614;9.894;2023-05-11T02:50:36;101253.22;;;10.98;87.00
21781;BME280;52576;53.614;9.894;2023-05-11T02:52:44;101251.59;;;10.96;86.95
21781;BME280;52576;53.614;9.894;2023-05-11T02:54:50;101252.63;;;10.93;87.23
21781;BME280;52576;53.614;9.894;2023-05-11T02:56:55;101259.56;;;10.94;87.24
21781;BME280;52576;53.614;9.894;2023-05-11T02:58:59;101254.53;;;10.91;87.23
21781;BME280;52576;53.614;9.894;2023-05-11T03:01:06;101256.19;;;10.92;87.29
21781;BME280;52576;53.614;9.894;2023-05-11T03:03:10;101251.78;;;10.93;87.49
21781;BME280;52576;53.614;9.894;2023-05-11T03:05:13;101261.44;;;10.92;87.42
21781;BME280;52576;53.614;9.894;2023-05-11T03:07:17;101256.19;;;10.92;87.49
21781;BME280;52576;53.614;9.894;2023-05-11T03:09:20;101258.81;;;10.92;87.29
21781;BME280;52576;53.614;9.894;2023-05-11T03:11:24;101253.56;;;10.92;87.36
21781;BME280;52576;53.614;9.894;2023-05-11T03:13:28;101257.16;;;10.91;87.47
21781;BME280;52576;53.614;9.894;2023-05-11T03:15:35;101262.50;;;10.90;87.53
21781;BME280;52576;53.614;9.894;2023-05-11T03:17:40;101255.56;;;10.88;87.51
21781;BME280;52576;53.614;9.894;2023-05-11T03:19:48;101252.19;;;10.86;87.53
21781;BME280;52576;53.614;9.894;2023-05-11T03:21:53;101258.44;;;10.84;87.57
21781;BME280;52576;53.614;9.894;2023-05-11T03:23:59;101255.91;;;10.82;87.66
21781;BME280;52576;53.614;9.894;2023-05-11T03:26:06;101262.00;;;10.83;87.71
21781;BME280;52576;53.614;9.894;2023-05-11T03:28:12;101255.91;;;10.82;87.76
21781;BME280;52576;53.614;9.894;2023-05-11T03:30:27;101253.38;;;10.81;87.64
21781;BME280;52576;53.614;9.894;2023-05-11T03:32:32;101256.94;;;10.80;87.83
21781;BME280;52576;53.614;9.894;2023-05-11T03:34:37;101256.19;;;10.78;87.78
21781;BME280;52576;53.614;9.894;2023-05-11T03:36:44;101249.25;;;10.77;87.91
21781;BME280;52576;53.614;9.894;2023-05-11T03:38:52;101250.19;;;10.76;87.85
21781;BME280;52576;53.614;9.894;2023-05-11T03:41:00;101252.06;;;10.74;87.85
21781;BME280;52576;53.614;9.894;2023-05-11T03:43:08;101250.38;;;10.73;87.92
21781;BME280;52576;53.614;9.894;2023-05-11T03:45:13;101249.53;;;10.72;88.01
21781;BME280;52576;53.614;9.894;2023-05-11T03:47:19;101241.56;;;10.74;87.97
21781;BME280;52576;53.614;9.894;2023-05-11T03:49:24;101243.25;;;10.75;88.19
21781;BME280;52576;53.614;9.894;2023-05-11T03:51:29;101251.03;;;10.76;88.21
21781;BME280;52576;53.614;9.894;2023-05-11T03:53:34;101257.13;;;10.77;88.18
21781;BME280;52576;53.614;9.894;2023-05-11T03:55:38;101251.88;;;10.77;88.16
21781;BME280;52576;53.614;9.894;2023-05-11T03:57:42;101255.44;;;10.76;88.08
21781;BME280;52576;53.614;9.894;2023-05-11T03:59:45;101249.44;;;10.74;88.03
21781;BME280;52576;53.614;9.894;2023-05-11T04:01:49;101246.81;;;10.74;88.07
21781;BME280;52576;53.614;9.894;2023-05-11T04:03:54;101251.13;;;10.75;88.24
21781;BME280;52576;53.614;9.894;2023-05-11T04:05:57;101247.66;;;10.74;88.17
21781;BME280;52576;53.614;9.894;2023-05-11T04:08:03;101244.94;;;10.76;88.25
21781;BME280;52576;53.614;9.894;2023-05-11T04:10:07;101243.09;;;10.78;88.27
21781;BME280;52576;53.614;9.894;2023-05-11T04:12:10;101240.38;;;10.79;88.34
21781;BME280;52576;53.614;9.894;2023-05-11T04:14:16;101249.09;;;10.80;88.12
21781;BME280;52576;53.614;9.894;2023-05-11T04:16:19;101241.22;;;10.80;88.00
21781;BME280;52576;53.614;9.894;2023-05-11T04:18:23;101240.28;;;10.81;88.19
21781;BME280;52576;53.614;9.894;2023-05-11T04:20:27;101237.47;;;10.84;88.24
21781;BME280;52576;53.614;9.894;2023-05-11T04:22:31;101246.09;;;10.86;88.17
21781;BME280;52576;53.614;9.894;2023-05-11T04:24:35;101245.91;;;10.89;88.31
21781;BME280;52576;53.614;9.894;2023-05-11T04:26:39;101239.53;;;10.93;88.29
21781;BME280;52576;53.614;9.894;2023-05-11T04:28:43;101243.66;;;10.97;88.20
21781;BME280;52576;53.614;9.894;2023-05-11T04:30:51;101247.88;;;11.00;88.33
21781;BME280;52576;53.614;9.894;2023-05-11T04:32:55;101252.09;;;11.02;88.20
21781;BME280;52576;53.614;9.894;2023-05-11T04:34:59;101244.13;;;11.04;88.14
21781;BME280;52576;53.614;9.894;2023-05-11T04:37:05;101253.59;;;11.06;88.07
21781;BME280;52576;53.614;9.894;2023-05-11T04:39:10;101262.22;;;11.08;87.80
21781;BME280;52576;53.614;9.894;2023-05-11T04:41:15;101259.50;;;11.10;87.78
21781;BME280;52576;53.614;9.894;2023-05-11T04:43:20;101257.63;;;11.12;87.64
21781;BME280;52576;53.614;9.894;2023-05-11T04:45:23;101267.09;;;11.14;87.87
21781;BME280;52576;53.614;9.894;2023-05-11T04:47:27;101264.38;;;11.16;87.60
21781;BME280;52576;53.614;9.894;2023-05-11T04:49:31;101266.88;;;11.17;87.56
21781;BME280;52576;53.614;9.894;2023-05-11T04:51:34;101259.75;;;11.19;87.53
21781;BME280;52576;53.614;9.894;2023-05-11T04:53:38;101257.88;;;11.21;87.52
21781;BME280;52576;53.614;9.894;2023-05-11T04:55:41;101265.66;;;11.23;87.26
21781;BME280;52576;53.614;9.894;2023-05-11T04:57:46;101263.13;;;11.21;87.23
21781;BME280;52576;53.614;9.894;2023-05-11T04:59:50;101263.97;;;11.22;87.25
21781;BME280;52576;53.614;9.894;2023-05-11T05:01:54;101268.19;;;11.25;87.24
21781;BME280;52576;53.614;9.894;2023-05-11T05:03:58;101267.25;;;11.26;87.39
21781;BME280;52576;53.614;9.894;2023-05-11T05:06:01;101271.38;;;11.30;87.38
21781;BME280;52576;53.614;9.894;2023-05-11T05:08:05;101273.81;;;11.33;87.16
21781;BME280;52576;53.614;9.894;2023-05-11T05:10:09;101276.44;;;11.33;87.17
21781;BME280;52576;53.614;9.894;2023-05-11T05:12:13;101277.28;;;11.33;87.26
21781;BME280;52576;53.614;9.894;2023-05-11T05:14:18;101270.25;;;11.34;86.97
21781;BME280;52576;53.614;9.894;2023-05-11T05:16:22;101280.75;;;11.34;87.08
21781;BME280;52576;53.614;9.894;2023-05-11T05:18:25;101279.81;;;11.35;86.88
21781;BME280;52576;53.614;9.894;2023-05-11T05:20:29;101278.13;;;11.34;87.03
21781;BME280;52576;53.614;9.894;2023-05-11T05:22:33;101283.19;;;11.37;87.10
21781;BME280;52576;53.614;9.894;2023-05-11T05:24:36;101281.31;;;11.39;87.15
21781;BME280;52576;53.614;9.894;2023-05-11T05:26:40;101280.28;;;11.41;86.90
21781;BME280;52576;53.614;9.894;2023-05-11T05:28:45;101280.28;;;11.41;86.87
21781;BME280;52576;53.614;9.894;2023-05-11T05:30:50;101279.44;;;11.41;86.75
21781;BME280;52576;53.614;9.894;2023-05-11T05:32:54;101285.31;;;11.44;86.94
21781;BME280;52576;53.614;9.894;2023-05-11T05:34:59;101289.53;;;11.47;86.87
21781;BME280;52576;53.614;9.894;2023-05-11T05:37:03;101281.56;;;11.48;86.61
21781;BME280;52576;53.614;9.894;2023-05-11T05:39:06;101289.34;;;11.50;86.68
21781;BME280;52576;53.614;9.894;2023-05-11T05:41:13;101288.41;;;11.51;86.49
21781;BME280;52576;53.614;9.894;2023-05-11T05:43:19;101284.66;;;11.55;86.48
21781;BME280;52576;53.614;9.894;2023-05-11T05:45:22;101291.50;;;11.57;86.21
21781;BME280;52576;53.614;9.894;2023-05-11T05:47:28;101298.34;;;11.60;86.21
21781;BME280;52576;53.614;9.894;2023-05-11T05:49:31;101298.06;;;11.65;86.46
21781;BME280;52576;53.614;9.894;2023-05-11T05:51:35;101306.69;;;11.67;85.90
21781;BME280;52576;53.614;9.894;2023-05-11T05:53:39;101307.53;;;11.67;85.83
21781;BME280;52576;53.614;9.894;2023-05-11T05:55:43;101303.97;;;11.68;85.75
21781;BME280;52576;53.614;9.894;2023-05-11T05:57:47;101298.50;;;11.71;85.70
21781;BME280;52576;53.614;9.894;2023-05-11T05:59:50;101307.13;;;11.73;85.52
21781;BME280;52576;53.614;9.894;2023-05-11T06:01:54;101306.09;;;11.76;85.51
21781;BME280;52576;53.614;9.894;2023-05-11T06:03:59;101312.22;;;11.76;85.34
21781;BME280;52576;53.614;9.894;2023-05-11T06:06:06;101311.34;;;11.76;85.05
21781;BME280;52576;53.614;9.894;2023-05-11T06:08:09;101314.06;;;11.74;84.92
21781;BME280;52576;53.614;9.894;2023-05-11T06:10:13;101312.38;;;11.73;84.95
21781;BME280;52576;53.614;9.894;2023-05-11T06:12:18;101310.50;;;11.75;85.14
21781;BME280;52576;53.614;9.894;2023-05-11T06:14:24;101313.91;;;11.77;84.99
21781;BME280;52576;53.614;9.894;2023-05-11T06:16:28;101308.47;;;11.80;85.23
21781;BME280;52576;53.614;9.894;2023-05-11T06:18:33;101319.63;;;11.84;85.16
21781;BME280;52576;53.614;9.894;2023-05-11T06:20:41;101312.41;;;11.87;85.00
21781;BME280;52576;53.614;9.894;2023-05-11T06:22:45;101318.22;;;11.93;84.91
21781;BME280;52576;53.614;9.894;2023-05-11T06:24:49;101318.22;;;11.93;84.71
21781;BME280;52576;53.614;9.894;2023-05-11T06:26:54;101319.69;;;11.97;84.83
21781;BME280;52576;53.614;9.894;2023-05-11T06:28:57;101308.03;;;12.01;85.01
21781;BME280;52576;53.614;9.894;2023-05-11T06:31:01;101318.34;;;12.04;84.95
21781;BME280;52576;53.614;9.894;2023-05-11T06:33:09;101317.22;;;12.08;84.74
21781;BME280;52576;53.614;9.894;2023-05-11T06:35:14;101317.03;;;12.11;84.48
21781;BME280;52576;53.614;9.894;2023-05-11T06:37:19;101309.88;;;12.13;84.33
21781;BME280;52576;53.614;9.894;2023-05-11T06:39:24;101318.50;;;12.15;84.01
21781;BME280;52576;53.614;9.894;2023-05-11T06:41:27;101317.47;;;12.17;84.18
21781;BME280;52576;53.614;9.894;2023-05-11T06:43:31;101315.59;;;12.19;84.07
21781;BME280;52576;53.614;9.894;2023-05-11T06:45:36;101317.91;;;12.24;83.91
21781;BME280;52576;53.614;9.894;2023-05-11T06:47:40;101322.13;;;12.27;83.88
21781;BME280;52576;53.614;9.894;2023-05-11T06:49:43;101316.75;;;12.28;83.76
21781;BME280;52576;53.614;9.894;2023-05-11T06:51:47;101320.22;;;12.29;83.54
21781;BME280;52576;53.614;9.894;2023-05-11T06:53:52;101321.06;;;12.29;83.71
21781;BME280;52576;53.614;9.894;2023-05-11T06:55:55;101320.97;;;12.31;83.71
21781;BME280;52576;53.614;9.894;2023-05-11T06:57:58;101325.19;;;12.33;83.68
21781;BME280;52576;53.614;9.894;2023-05-11T07:00:02;101329.31;;;12.37;83.93
21781;BME280;52576;53.614;9.894;2023-05-11T07:02:06;101327.22;;;12.42;83.81
21781;BME280;52576;53.614;9.894;2023-05-11T07:04:10;101324.31;;;12.47;83.62
21781;BME280;52576;53.614;9.894;2023-05-11T07:06:13;101325.66;;;12.52;83.55
21781;BME280;52576;53.614;9.894;2023-05-11T07:08:17;101331.47;;;12.57;83.42
21781;BME280;52576;53.614;9.894;2023-05-11T07:10:22;101330.31;;;12.62;83.38
21781;BME280;52576;53.614;9.894;2023-05-11T07:12:26;101332.97;;;12.62;83.17
21781;BME280;52576;53.614;9.894;2023-05-11T07:14:29;101329.38;;;12.63;83.09
21781;BME280;52576;53.614;9.894;2023-05-11T07:16:33;101335.50;;;12.63;82.94
21781;BME280;52576;53.614;9.894;2023-05-11T07:18:38;101333.81;;;12.62;82.77
21781;BME280;52576;53.614;9.894;2023-05-11T07:20:42;101339.06;;;12.62;83.06
21781;BME280;52576;53.614;9.894;2023-05-11T07:22:47;101339.91;;;12.63;82.72
21781;BME280;52576;53.614;9.894;2023-05-11T07:24:51;101334.44;;;12.66;82.90
21781;BME280;52576;53.614;9.894;2023-05-11T07:26:56;101330.78;;;12.68;83.04
21781;BME280;52576;53.614;9.894;2023-05-11T07:28:59;101334.03;;;12.72;82.83
21781;BME280;52576;53.614;9.894;2023-05-11T07:31:03;101337.38;;;12.74;82.92
21781;BME280;52576;53.614;9.894;2023-05-11T07:33:06;101331.91;;;12.77;83.11
21781;BME280;52576;53.614;9.894;2023-05-11T07:35:10;101335.09;;;12.82;83.11
21781;BME280;52576;53.614;9.894;2023-05-11T07:37:13;101331.09;;;12.89;82.99
21781;BME280;52576;53.614;9.894;2023-05-11T07:39:17;101334.28;;;12.94;82.85
21781;BME280;52576;53.614;9.894;2023-05-11T07:41:21;101333.00;;;13.00;82.58
21781;BME280;52576;53.614;9.894;2023-05-11T07:43:29;101329.31;;;13.02;82.55
21781;BME280;52576;53.614;9.894;2023-05-11T07:45:32;101335.31;;;13.04;82.52
21781;BME280;52576;53.614;9.894;2023-05-11T07:47:36;101337.84;;;13.06;82.16
21781;BME280;52576;53.614;9.894;2023-05-11T07:49:39;101339.34;;;13.10;82.31
21781;BME280;52576;53.614;9.894;2023-05-11T07:51:45;101338.50;;;13.09;82.16
21781;BME280;52576;53.614;9.894;2023-05-11T07:53:48;101337.34;;;13.13;82.44
21781;BME280;52576;53.614;9.894;2023-05-11T07:55:52;101339.69;;;13.18;82.43
21781;BME280;52576;53.614;9.894;2023-05-11T07:57:55;101341.06;;;13.23;82.45
21781;BME280;52576;53.614;9.894;2023-05-11T08:00:00;101344.19;;;13.29;82.17
21781;BME280;52576;53.614;9.894;2023-05-11T08:02:12;101354.31;;;13.35;81.90
21781;BME280;52576;53.614;9.894;2023-05-11T08:04:16;101345.25;;;13.39;81.62
21781;BME280;52576;53.614;9.894;2023-05-11T08:06:19;101345.03;;;13.42;81.88
21781;BME280;52576;53.614;9.894;2023-05-11T08:08:23;101350.09;;;13.45;81.52
21781;BME280;52576;53.614;9.894;2023-05-11T08:10:27;101347.25;;;13.48;81.67
21781;BME280;52576;53.614;9.894;2023-05-11T08:12:30;101351.59;;;13.49;81.16
21781;BME280;52576;53.614;9.894;2023-05-11T08:14:34;101351.59;;;13.49;81.25
21781;BME280;52576;53.614;9.894;2023-05-11T08:16:39;101353.28;;;13.50;81.26
21781;BME280;52576;53.614;9.894;2023-05-11T08:18:44;101361.03;;;13.51;81.24
21781;BME280;52576;53.614;9.894;2023-05-11T08:20:47;101354.50;;;13.57;81.28
21781;BME280;52576;53.614;9.894;2023-05-11T08:22:51;101348.59;;;13.66;81.30
21781;BME280;52576;53.614;9.894;2023-05-11T08:24:54;101351.53;;;13.74;81.11
21781;BME280;52576;53.614;9.894;2023-05-11T08:26:57;101345.59;;;13.83;80.39
21781;BME280;52576;53.614;9.894;2023-05-11T08:29:01;101351.38;;;13.88;80.43
21781;BME280;52576;53.614;9.894;2023-05-11T08:31:05;101358.22;;;13.91;80.39
21781;BME280;52576;53.614;9.894;2023-05-11T08:33:10;101352.22;;;13.89;79.64
21781;BME280;52576;53.614;9.894;2023-05-11T08:35:33;101359.28;;;13.88;80.16
21781;BME280;52576;53.614;9.894;2023-05-11T08:37:37;101364.34;;;13.91;80.26
21781;BME280;52576;53.614;9.894;2023-05-11T08:39:40;101356.97;;;13.97;80.10
21781;BME280;52576;53.614;9.894;2023-05-11T08:41:48;101356.53;;;14.03;79.67
21781;BME280;52576;53.614;9.894;2023-05-11T08:43:53;101356.06;;;14.09;79.21
21781;BME280;52576;53.614;9.894;2023-05-11T08:46:01;101363.44;;;14.16;79.39
21781;BME280;52576;53.614;9.894;2023-05-11T08:48:05;101360.03;;;14.27;79.36
21781;BME280;52576;53.614;9.894;2023-05-11T08:50:11;101355.84;;;14.36;79.00
21781;BME280;52576;53.614;9.894;2023-05-11T08:52:15;101357.44;;;14.38;78.96
21781;BME280;52576;53.614;9.894;2023-05-11T08:54:20;101352.88;;;14.40;79.05
21781;BME280;52576;53.614;9.894;2023-05-11T08:56:25;101355.44;;;14.42;78.87
21781;BME280;52576;53.614;9.894;2023-05-11T08:58:29;101353.44;;;14.45;78.95
21781;BME280;52576;53.614;9.894;2023-05-11T09:00:33;101362.56;;;14.52;79.03
21781;BME280;52576;53.614;9.894;2023-05-11T09:02:37;101356.81;;;14.58;78.61
21781;BME280;52576;53.614;9.894;2023-05-11T09:04:41;101362.81;;;14.60;78.75
21781;BME280;52576;53.614;9.894;2023-05-11T09:06:50;101361.13;;;14.59;78.55
21781;BME280;52576;53.614;9.894;2023-05-11T09:08:54;101356.09;;;14.56;78.49
21781;BME280;52576;53.614;9.894;2023-05-11T09:10:58;101360.16;;;14.49;78.30
21781;BME280;52576;53.614;9.894;2023-05-11T09:13:02;101362.50;;;14.41;78.08
21781;BME280;52576;53.614;9.894;2023-05-11T09:15:06;101364.81;;;14.33;78.50
21781;BME280;52576;53.614;9.894;2023-05-11T09:17:10;101366.97;;;14.28;78.36
21781;BME280;52576;53.614;9.894;2023-05-11T09:19:14;101368.16;;;14.24;78.90
21781;BME280;52576;53.614;9.894;2023-05-11T09:21:18;101363.09;;;14.21;78.80
21781;BME280;52576;53.614;9.894;2023-05-11T09:23:25;101365.00;;;14.19;78.76
21781;BME280;52576;53.614;9.894;2023-05-11T09:25:31;101364.28;;;14.17;79.29
21781;BME280;52576;53.614;9.894;2023-05-11T09:27:40;101360.28;;;14.11;79.14
21781;BME280;52576;53.614;9.894;2023-05-11T09:29:44;101359.66;;;14.08;79.74
21781;BME280;52576;53.614;9.894;2023-05-11T09:31:53;101360.72;;;14.05;79.46
21781;BME280;52576;53.614;9.894;2023-05-11T09:34:10;101366.22;;;14.02;79.69
21781;BME280;52576;53.614;9.894;2023-05-11T09:36:22;101371.72;;;13.99;79.70
21781;BME280;52576;53.614;9.894;2023-05-11T09:38:27;101371.09;;;13.96;80.19
21781;BME280;52576;53.614;9.894;2023-05-11T09:40:32;101373.72;;;13.96;80.05
21781;BME280;52576;53.614;9.894;2023-05-11T09:42:36;101369.41;;;13.95;80.16
21781;BME280;52576;53.614;9.894;2023-05-11T09:44:40;101374.56;;;13.96;80.33
21781;BME280;52576;53.614;9.894;2023-05-11T09:46:44;101376.16;;;13.99;80.40
21781;BME280;52576;53.614;9.894;2023-05-11T09:48:57;101375.19;;;14.00;80.66
21781;BME280;52576;53.614;9.894;2023-05-11T09:51:03;101378.44;;;14.03;80.76
21781;BME280;52576;53.614;9.894;2023-05-11T09:53:06;101374.72;;;14.06;80.67
21781;BME280;52576;53.614;9.894;2023-05-11T09:55:11;101375.34;;;14.09;80.99
21781;BME280;52576;53.614;9.894;2023-05-11T09:57:24;101376.19;;;14.10;80.75
21781;BME280;52576;53.614;9.894;2023-05-11T09:59:39;101378.72;;;14.11;80.86
21781;BME280;52576;53.614;9.894;2023-05-11T10:01:43;101378.84;;;14.10;80.99
21781;BME280;52576;53.614;9.894;2023-05-11T10:03:47;101375.47;;;14.08;81.21
21781;BME280;52576;53.614;9.894;2023-05-11T10:05:58;101378.44;;;14.03;81.49
21781;BME280;52576;53.614;9.894;2023-05-11T10:08:03;101379.72;;;13.98;81.32
21781;BME280;52576;53.614;9.894;2023-05-11T10:10:09;101373.94;;;13.92;81.60
21781;BME280;52576;53.614;9.894;2023-05-11T10:12:14;101378.91;;;13.84;81.80
21781;BME280;52576;53.614;9.894;2023-05-11T10:14:17;101383.53;;;13.81;82.15
21781;BME280;52576;53.614;9.894;2023-05-11T10:16:21;101395.03;;;13.80;82.58
21781;BME280;52576;53.614;9.894;2023-05-11T10:18:25;101390.72;;;13.79;82.58
21781;BME280;52576;53.614;9.894;2023-05-11T10:20:28;101381.97;;;13.78;82.54
21781;BME280;52576;53.614;9.894;2023-05-11T10:22:32;101370.94;;;13.73;82.87
21781;BME280;52576;53.614;9.894;2023-05-11T10:24:35;101357.97;;;13.70;82.88
21781;BME280;52576;53.614;9.894;2023-05-11T10:26:39;101356.81;;;13.74;83.51
21781;BME280;52576;53.614;9.894;2023-05-11T10:28:44;101365.84;;;13.83;83.44
21781;BME280;52576;53.614;9.894;2023-05-11T10:30:48;101366.88;;;13.93;83.46
21781;BME280;52576;53.614;9.894;2023-05-11T10:32:53;101371.50;;;14.02;83.26
21781;BME280;52576;53.614;9.894;2023-05-11T10:34:58;101366.38;;;14.12;83.75
21781;BME280;52576;53.614;9.894;2023-05-11T10:37:01;101366.25;;;14.26;83.69
21781;BME280;52576;53.614;9.894;2023-05-11T10:39:06;101364.38;;;14.39;83.67
21781;BME280;52576;53.614;9.894;2023-05-11T10:41:18;101366.91;;;14.53;83.27
21781;BME280;52576;53.614;9.894;2023-05-11T10:43:52;101370.28;;;14.67;83.10
21781;BME280;52576;53.614;9.894;2023-05-11T10:46:15;101364.84;;;14.81;82.96
21781;BME280;52576;53.614;9.894;2023-05-11T10:48:47;101363.44;;;14.99;82.38
21781;BME280;52576;53.614;9.894;2023-05-11T10:51:02;101358.91;;;15.12;81.30
21781;BME280;52576;53.614;9.894;2023-05-11T10:53:22;101368.53;;;15.24;81.27
21781;BME280;52576;53.614;9.894;2023-05-11T10:55:38;101369.50;;;15.35;80.56
21781;BME280;52576;53.614;9.894;2023-05-11T10:58:05;101369.03;;;15.41;79.83
21781;BME280;52576;53.614;9.894;2023-05-11T11:00:28;101369.03;;;15.41;78.98